createdAt,value
2022-10-14T00:00:20.921Z,13.60
2022-10-14T00:01:24.611Z,13.58
2022-10-14T00:02:26.889Z,13.54
2022-10-14T00:03:29.967Z,13.59
2022-10-14T00:04:32.247Z,13.58
2022-10-14T00:05:34.479Z,13.46
2022-10-14T00:06:36.633Z,13.22
2022-10-14T00:07:39.417Z,13.08
2022-10-14T00:08:43.072Z,13.00
2022-10-14T00:09:49.251Z,12.85
2022-10-14T00:10:51.703Z,12.81
2022-10-14T00:11:53.845Z,12.86
2022-10-14T00:12:56.082Z,12.90
2022-10-14T00:14:04.593Z,13.02
2022-10-14T00:15:07.655Z,13.04
2022-10-14T00:16:24.913Z,13.06
2022-10-14T00:17:27.118Z,13.06
2022-10-14T00:18:30.693Z,13.02
2022-10-14T00:19:32.861Z,13.05
2022-10-14T00:20:36.224Z,13.12
2022-10-14T00:21:41.079Z,13.17
2022-10-14T00:22:44.074Z,13.19
2022-10-14T00:23:46.537Z,13.16
2022-10-14T00:24:48.726Z,13.25
2022-10-14T00:25:51.084Z,13.35
2022-10-14T00:26:54.117Z,13.38
2022-10-14T00:27:56.566Z,13.36
2022-10-14T00:29:00.014Z,13.40
2022-10-14T00:30:06.616Z,13.45
2022-10-14T00:31:09.279Z,13.51
2022-10-14T00:32:11.891Z,13.55
2022-10-14T00:33:14.089Z,13.55
2022-10-14T00:34:16.321Z,13.60
2022-10-14T00:35:19.027Z,13.58
2022-10-14T00:36:23.026Z,13.60
2022-10-14T00:37:25.460Z,13.62
2022-10-14T00:38:28.413Z,13.60
2022-10-14T00:39:30.650Z,13.52
2022-10-14T00:40:33.332Z,13.57
2022-10-14T00:41:35.753Z,13.57
2022-10-14T00:42:37.971Z,13.56
2022-10-14T00:44:24.903Z,13.58
2022-10-14T00:45:27.101Z,13.60
2022-10-14T00:46:34.477Z,13.64
2022-10-14T00:47:37.392Z,13.61
2022-10-14T00:48:43.729Z,13.62
2022-10-14T00:49:45.895Z,13.63
2022-10-14T00:50:54.626Z,13.65
2022-10-14T00:52:08.932Z,13.61
2022-10-14T00:53:13.942Z,13.48
2022-10-14T00:54:18.576Z,13.41
2022-10-14T00:55:21.312Z,13.24
2022-10-14T00:56:28.238Z,13.20
2022-10-14T00:57:31.431Z,13.22
2022-10-14T00:58:34.583Z,13.21
2022-10-14T00:59:38.228Z,13.21
2022-10-14T01:00:40.469Z,13.16
2022-10-14T01:01:42.707Z,13.19
2022-10-14T01:02:46.616Z,13.14
2022-10-14T01:03:49.070Z,13.14
2022-10-14T01:04:51.361Z,13.11
2022-10-14T01:06:00.106Z,13.07
2022-10-14T01:07:22.445Z,13.01
2022-10-14T01:08:44.556Z,13.02
2022-10-14T01:09:59.975Z,13.04
2022-10-14T01:11:14.712Z,13.13
2022-10-14T01:12:50.074Z,13.18
2022-10-14T01:14:21.067Z,13.16
2022-10-14T01:15:32.317Z,13.08
2022-10-14T01:17:06.154Z,13.14
2022-10-14T01:18:19.971Z,13.16
2022-10-14T01:19:59.644Z,13.01
2022-10-14T01:21:15.708Z,12.97
2022-10-14T01:22:27.266Z,12.93
2022-10-14T01:24:11.388Z,12.94
2022-10-14T01:25:34.760Z,12.99
2022-10-14T01:27:18.665Z,13.01
2022-10-14T01:28:28.947Z,13.02
2022-10-14T01:29:48.991Z,12.98
2022-10-14T01:31:03.272Z,12.98
2022-10-14T01:32:20.124Z,12.99
2022-10-14T01:33:25.774Z,12.99
2022-10-14T01:34:36.687Z,13.04
2022-10-14T01:35:50.675Z,13.02
2022-10-14T01:37:04.954Z,13.03
2022-10-14T01:38:13.033Z,13.12
2022-10-14T01:39:21.540Z,13.03
2022-10-14T01:40:47.360Z,12.96
2022-10-14T01:41:58.523Z,13.04
2022-10-14T01:43:03.076Z,12.98
2022-10-14T01:44:10.155Z,12.98
2022-10-14T01:45:20.063Z,13.04
2022-10-14T01:46:24.483Z,12.99
2022-10-14T01:47:30.312Z,13.01
2022-10-14T01:48:36.857Z,13.01
2022-10-14T01:49:44.259Z,13.04
2022-10-14T01:50:50.017Z,13.00
2022-10-14T01:51:58.624Z,12.94
2022-10-14T01:53:11.810Z,12.94
2022-10-14T01:54:22.171Z,12.88
2022-10-14T01:55:28.412Z,12.88
2022-10-14T01:56:34.980Z,12.89
2022-10-14T01:57:43.492Z,12.97
2022-10-14T01:58:46.554Z,12.95
2022-10-14T01:59:50.282Z,12.95
2022-10-14T02:00:53.035Z,13.02
2022-10-14T02:01:55.297Z,13.04
2022-10-14T02:02:57.563Z,13.06
2022-10-14T02:03:59.689Z,13.04
2022-10-14T02:05:10.716Z,12.98
2022-10-14T02:06:24.986Z,13.07
2022-10-14T02:07:47.397Z,13.07
2022-10-14T02:09:09.951Z,13.00
2022-10-14T02:10:41.735Z,13.02
2022-10-14T02:12:18.487Z,13.04
2022-10-14T02:13:42.986Z,12.97
2022-10-14T02:15:00.735Z,12.87
2022-10-14T02:16:26.203Z,12.83
2022-10-14T02:17:34.153Z,12.83
2022-10-14T02:18:57.002Z,12.76
2022-10-14T02:20:43.795Z,12.79
2022-10-14T02:22:15.691Z,12.86
2022-10-14T02:23:35.175Z,12.95
2022-10-14T02:24:44.460Z,13.04
2022-10-14T02:25:48.998Z,12.94
2022-10-14T02:26:55.521Z,12.92
2022-10-14T02:28:00.539Z,12.92
2022-10-14T02:29:05.013Z,12.85
2022-10-14T02:30:09.487Z,12.82
2022-10-14T02:31:16.186Z,12.75
2022-10-14T02:32:22.805Z,12.74
2022-10-14T02:33:37.845Z,12.67
2022-10-14T02:34:48.149Z,12.79
2022-10-14T02:35:51.919Z,12.89
2022-10-14T02:36:55.421Z,12.90
2022-10-14T02:37:59.588Z,12.93
2022-10-14T02:39:03.108Z,12.97
2022-10-14T02:40:11.335Z,12.99
2022-10-14T02:41:18.875Z,13.07
2022-10-14T02:42:21.269Z,13.08
2022-10-14T02:43:23.683Z,13.06
2022-10-14T02:44:25.867Z,13.07
2022-10-14T02:45:28.160Z,13.12
2022-10-14T02:46:30.491Z,13.10
2022-10-14T02:47:32.676Z,13.14
2022-10-14T02:48:34.950Z,13.02
2022-10-14T02:49:37.792Z,13.02
2022-10-14T02:50:42.411Z,13.03
2022-10-14T02:51:44.662Z,13.06
2022-10-14T02:52:47.554Z,12.98
2022-10-14T02:53:49.912Z,12.91
2022-10-14T02:54:52.087Z,12.91
2022-10-14T02:55:54.248Z,12.85
2022-10-14T02:56:56.440Z,12.86
2022-10-14T02:57:59.757Z,12.78
2022-10-14T02:59:02.107Z,12.81
2022-10-14T03:00:06.603Z,12.84
2022-10-14T03:01:11.024Z,12.88
2022-10-14T03:02:14.364Z,12.79
2022-10-14T03:03:17.199Z,12.76
2022-10-14T03:04:19.440Z,12.71
2022-10-14T03:05:21.610Z,12.74
2022-10-14T03:06:23.841Z,12.72
2022-10-14T03:07:26.351Z,12.70
2022-10-14T03:08:30.756Z,12.70
2022-10-14T03:09:34.462Z,12.68
2022-10-14T03:10:36.696Z,12.69
2022-10-14T03:11:39.000Z,12.70
2022-10-14T03:12:44.616Z,12.69
2022-10-14T03:13:55.636Z,12.68
2022-10-14T03:14:57.878Z,12.67
2022-10-14T03:16:01.541Z,12.69
2022-10-14T03:17:03.805Z,12.72
2022-10-14T03:18:08.721Z,12.67
2022-10-14T03:19:18.291Z,12.66
2022-10-14T03:20:24.125Z,12.72
2022-10-14T03:21:30.838Z,12.70
2022-10-14T03:22:33.631Z,12.72
2022-10-14T03:23:35.793Z,12.69
2022-10-14T03:24:38.411Z,12.71
2022-10-14T03:26:13.084Z,12.76
2022-10-14T03:27:18.882Z,12.79
2022-10-14T03:28:24.734Z,12.74
2022-10-14T03:29:34.950Z,12.71
2022-10-14T03:30:50.768Z,12.72
2022-10-14T03:32:06.537Z,12.82
2022-10-14T03:33:33.078Z,12.70
2022-10-14T03:34:56.308Z,12.67
2022-10-14T03:36:00.078Z,12.60
2022-10-14T03:37:15.414Z,12.65
2022-10-14T03:38:24.312Z,12.62
2022-10-14T03:39:28.508Z,12.74
2022-10-14T03:40:37.652Z,12.81
2022-10-14T03:41:43.829Z,12.82
2022-10-14T03:42:47.856Z,12.88
2022-10-14T03:43:51.288Z,12.91
2022-10-14T03:44:53.723Z,12.93
2022-10-14T03:46:00.934Z,12.84
2022-10-14T03:47:04.191Z,12.82
2022-10-14T03:48:08.611Z,12.74
2022-10-14T03:49:14.900Z,12.71
2022-10-14T03:50:17.413Z,12.72
2022-10-14T03:51:24.028Z,12.67
2022-10-14T03:52:29.178Z,12.66
2022-10-14T03:53:40.712Z,12.67
2022-10-14T03:54:43.233Z,12.66
2022-10-14T03:55:47.640Z,12.70
2022-10-14T03:56:50.811Z,12.63
2022-10-14T03:57:54.728Z,12.60
2022-10-14T03:58:57.018Z,12.39
2022-10-14T04:00:00.420Z,12.27
2022-10-14T04:01:15.960Z,12.27
2022-10-14T04:02:50.584Z,12.29
2022-10-14T04:04:13.094Z,12.43
2022-10-14T04:05:15.654Z,12.31
2022-10-14T04:06:20.362Z,12.27
2022-10-14T04:07:24.762Z,12.24
2022-10-14T04:08:31.864Z,12.29
2022-10-14T04:09:41.550Z,12.38
2022-10-14T04:10:45.822Z,12.36
2022-10-14T04:11:50.477Z,12.44
2022-10-14T04:13:22.558Z,12.41
2022-10-14T04:14:26.422Z,12.37
2022-10-14T04:15:28.658Z,12.50
2022-10-14T04:16:56.841Z,12.59
2022-10-14T04:17:59.029Z,12.47
2022-10-14T04:19:01.209Z,12.44
2022-10-14T04:20:03.750Z,12.45
2022-10-14T04:21:10.526Z,12.52
2022-10-14T04:22:12.734Z,12.52
2022-10-14T04:23:14.911Z,12.47
2022-10-14T04:24:20.596Z,12.52
2022-10-14T04:25:28.142Z,12.44
2022-10-14T04:26:37.523Z,12.46
2022-10-14T04:27:46.039Z,12.45
2022-10-14T04:28:48.411Z,12.56
2022-10-14T04:30:06.743Z,12.61
2022-10-14T04:31:19.715Z,12.60
2022-10-14T04:32:35.165Z,12.63
2022-10-14T04:33:39.203Z,12.64
2022-10-14T04:34:50.218Z,12.57
2022-10-14T04:36:00.110Z,12.59
2022-10-14T04:37:08.097Z,12.49
2022-10-14T04:38:33.815Z,12.51
2022-10-14T04:39:40.380Z,12.65
2022-10-14T04:40:45.386Z,12.76
2022-10-14T04:41:48.272Z,12.67
2022-10-14T04:42:58.138Z,12.73
2022-10-14T04:44:07.031Z,12.79
2022-10-14T04:45:16.191Z,12.85
2022-10-14T04:46:24.745Z,12.92
2022-10-14T04:47:27.210Z,12.96
2022-10-14T04:48:34.255Z,12.73
2022-10-14T04:49:37.124Z,12.60
2022-10-14T04:50:46.168Z,12.65
2022-10-14T04:52:02.243Z,12.62
2022-10-14T04:53:26.975Z,12.62
2022-10-14T04:54:39.028Z,12.68
2022-10-14T04:55:41.305Z,12.75
2022-10-14T04:56:43.466Z,12.65
2022-10-14T04:57:47.148Z,12.61
2022-10-14T04:58:50.062Z,12.64
2022-10-14T04:59:52.404Z,12.69
2022-10-14T05:00:57.790Z,12.72
2022-10-14T05:02:07.837Z,12.65
2022-10-14T05:03:17.565Z,12.52
2022-10-14T05:04:19.960Z,12.52
2022-10-14T05:05:24.092Z,12.56
2022-10-14T05:06:29.653Z,12.53
2022-10-14T05:07:31.915Z,12.44
2022-10-14T05:08:44.502Z,12.49
2022-10-14T05:09:52.087Z,12.50
2022-10-14T05:11:02.449Z,12.52
2022-10-14T05:12:16.738Z,12.53
2022-10-14T05:13:24.997Z,12.60
2022-10-14T05:14:36.318Z,12.63
2022-10-14T05:15:50.051Z,12.62
2022-10-14T05:16:52.821Z,12.58
2022-10-14T05:18:02.104Z,12.64
2022-10-14T05:19:20.557Z,12.63
2022-10-14T05:20:26.736Z,12.72
2022-10-14T05:21:32.269Z,12.77
2022-10-14T05:22:47.821Z,12.78
2022-10-14T05:23:50.401Z,12.80
2022-10-14T05:24:53.242Z,12.77
2022-10-14T05:25:57.541Z,12.81
2022-10-14T05:27:00.538Z,12.80
2022-10-14T05:28:05.118Z,12.85
2022-10-14T05:29:10.491Z,12.86
2022-10-14T05:30:14.747Z,12.84
2022-10-14T05:31:22.547Z,12.66
2022-10-14T05:32:33.816Z,12.58
2022-10-14T05:33:39.615Z,12.67
2022-10-14T05:34:42.243Z,12.59
2022-10-14T05:36:04.128Z,12.59
2022-10-14T05:37:09.403Z,12.62
2022-10-14T05:38:22.559Z,12.66
2022-10-14T05:39:25.093Z,12.71
2022-10-14T05:40:27.543Z,12.75
2022-10-14T05:41:30.468Z,12.79
2022-10-14T05:42:34.469Z,12.80
2022-10-14T05:43:37.398Z,12.86
2022-10-14T05:44:41.674Z,12.86
2022-10-14T05:45:44.072Z,12.94
2022-10-14T05:46:46.366Z,12.99
2022-10-14T05:47:49.993Z,13.02
2022-10-14T05:48:54.013Z,13.04
2022-10-14T05:49:56.225Z,12.95
2022-10-14T05:51:02.149Z,12.96
2022-10-14T05:52:05.356Z,12.81
2022-10-14T05:53:08.766Z,12.65
2022-10-14T05:54:16.709Z,12.55
2022-10-14T05:55:19.720Z,12.55
2022-10-14T05:56:23.174Z,12.59
2022-10-14T05:57:27.120Z,12.58
2022-10-14T05:58:29.446Z,12.68
2022-10-14T05:59:34.592Z,12.68
2022-10-14T06:00:36.845Z,12.78
2022-10-14T06:01:43.693Z,12.87
2022-10-14T06:02:46.416Z,12.97
2022-10-14T06:03:52.604Z,13.00
2022-10-14T06:04:55.382Z,12.90
2022-10-14T06:05:59.060Z,12.83
2022-10-14T06:07:01.467Z,12.75
2022-10-14T06:08:05.008Z,12.71
2022-10-14T06:09:11.480Z,12.75
2022-10-14T06:10:14.140Z,12.71
2022-10-14T06:11:16.371Z,12.75
2022-10-14T06:12:19.627Z,12.77
2022-10-14T06:13:22.848Z,12.81
2022-10-14T06:14:26.213Z,12.85
2022-10-14T06:15:28.446Z,12.91
2022-10-14T06:16:31.410Z,13.02
2022-10-14T06:17:33.824Z,13.14
2022-10-14T06:18:36.698Z,13.19
2022-10-14T06:19:39.589Z,13.21
2022-10-14T06:20:41.755Z,13.07
2022-10-14T06:21:44.783Z,12.98
2022-10-14T06:22:47.070Z,13.08
2022-10-14T06:23:49.255Z,13.04
2022-10-14T06:24:51.538Z,13.02
2022-10-14T06:25:53.770Z,12.91
2022-10-14T06:26:55.903Z,12.91
2022-10-14T06:28:05.235Z,12.94
2022-10-14T06:29:07.612Z,12.95
2022-10-14T06:30:10.564Z,13.00
2022-10-14T06:31:12.786Z,13.10
2022-10-14T06:32:15.011Z,13.13
2022-10-14T06:33:17.385Z,13.13
2022-10-14T06:34:22.994Z,13.01
2022-10-14T06:35:25.303Z,13.14
2022-10-14T06:36:27.534Z,13.24
2022-10-14T06:37:29.800Z,13.31
2022-10-14T06:38:32.277Z,13.35
2022-10-14T06:39:34.486Z,13.38
2022-10-14T06:40:37.270Z,13.41
2022-10-14T06:41:39.442Z,13.49
2022-10-14T06:42:48.198Z,13.63
2022-10-14T06:43:50.508Z,13.75
2022-10-14T06:44:52.668Z,13.80
2022-10-14T06:45:57.213Z,13.88
2022-10-14T06:47:00.046Z,13.79
2022-10-14T06:48:04.342Z,13.72
2022-10-14T06:49:06.638Z,13.62
2022-10-14T06:50:09.047Z,13.61
2022-10-14T06:51:11.503Z,13.61
2022-10-14T06:52:13.761Z,13.56
2022-10-14T06:53:16.007Z,13.64
2022-10-14T06:54:18.396Z,13.61
2022-10-14T06:55:20.639Z,13.54
2022-10-14T06:56:22.835Z,13.52
2022-10-14T06:57:25.090Z,13.48
2022-10-14T06:58:27.465Z,13.50
2022-10-14T06:59:29.726Z,13.50
2022-10-14T07:00:31.980Z,13.51
2022-10-14T07:01:34.278Z,13.48
2022-10-14T07:02:39.797Z,13.44
2022-10-14T07:03:42.043Z,13.40
2022-10-14T07:04:44.296Z,13.44
2022-10-14T07:05:46.584Z,13.33
2022-10-14T07:06:49.138Z,13.40
2022-10-14T07:07:51.932Z,13.37
2022-10-14T07:08:54.395Z,13.42
2022-10-14T07:09:58.075Z,13.47
2022-10-14T07:11:00.386Z,13.50
2022-10-14T07:12:02.645Z,13.54
2022-10-14T07:13:05.226Z,13.61
2022-10-14T07:14:07.535Z,13.62
2022-10-14T07:15:10.444Z,13.66
2022-10-14T07:16:12.788Z,13.66
2022-10-14T07:17:15.047Z,13.78
2022-10-14T07:18:17.475Z,13.82
2022-10-14T07:19:19.793Z,13.90
2022-10-14T07:20:22.324Z,14.06
2022-10-14T07:21:27.578Z,14.18
2022-10-14T07:22:29.955Z,14.18
2022-10-14T07:23:32.175Z,14.22
2022-10-14T07:24:34.458Z,14.14
2022-10-14T07:25:36.753Z,14.12
2022-10-14T07:26:38.985Z,14.20
2022-10-14T07:27:41.295Z,14.27
2022-10-14T07:28:43.589Z,14.28
2022-10-14T07:29:46.324Z,14.32
2022-10-14T07:31:14.573Z,14.28
2022-10-14T07:32:16.753Z,14.33
2022-10-14T07:33:18.983Z,14.44
2022-10-14T07:34:21.353Z,14.20
2022-10-14T07:35:25.579Z,14.26
2022-10-14T07:36:28.450Z,14.42
2022-10-14T07:37:30.816Z,14.50
2022-10-14T07:38:33.702Z,14.37
2022-10-14T07:39:36.147Z,14.44
2022-10-14T07:40:38.535Z,14.56
2022-10-14T07:41:41.065Z,14.51
2022-10-14T07:42:43.688Z,14.36
2022-10-14T07:43:49.048Z,14.42
2022-10-14T07:44:54.031Z,14.63
2022-10-14T07:46:00.860Z,14.68
2022-10-14T07:47:03.296Z,14.63
2022-10-14T07:48:05.902Z,14.72
2022-10-14T07:49:15.826Z,14.66
2022-10-14T07:50:18.698Z,14.64
2022-10-14T07:51:21.060Z,14.76
2022-10-14T07:52:23.227Z,14.72
2022-10-14T07:53:26.415Z,14.60
2022-10-14T07:54:30.975Z,14.56
2022-10-14T07:55:33.179Z,14.68
2022-10-14T07:56:39.302Z,14.74
2022-10-14T07:57:41.458Z,14.84
2022-10-14T07:58:44.457Z,14.99
2022-10-14T07:59:46.939Z,15.12
2022-10-14T08:00:51.426Z,14.89
2022-10-14T08:01:54.125Z,14.84
2022-10-14T08:02:56.394Z,14.88
2022-10-14T08:03:59.121Z,14.73
2022-10-14T08:05:25.623Z,14.75
2022-10-14T08:06:23.793Z,14.73
2022-10-14T08:07:26.955Z,14.69
2022-10-14T08:08:29.691Z,14.71
2022-10-14T08:09:35.325Z,14.79
2022-10-14T08:10:39.371Z,14.83
2022-10-14T08:11:43.016Z,14.80
2022-10-14T08:12:46.219Z,14.79
2022-10-14T08:13:50.142Z,14.73
2022-10-14T08:14:55.502Z,14.76
2022-10-14T08:15:57.895Z,14.92
2022-10-14T08:17:00.269Z,15.01
2022-10-14T08:18:02.746Z,15.05
2022-10-14T08:19:14.234Z,15.05
2022-10-14T08:20:17.195Z,15.11
2022-10-14T08:21:21.051Z,15.09
2022-10-14T08:22:23.679Z,15.08
2022-10-14T08:23:26.851Z,15.14
2022-10-14T08:24:29.203Z,15.04
2022-10-14T08:25:31.691Z,14.99
2022-10-14T08:26:48.853Z,15.01
2022-10-14T08:27:51.176Z,14.92
2022-10-14T08:28:53.568Z,14.97
2022-10-14T08:29:55.933Z,15.06
2022-10-14T08:31:01.097Z,15.12
2022-10-14T08:32:03.413Z,15.08
2022-10-14T08:33:05.770Z,15.16
2022-10-14T08:34:07.962Z,15.17
2022-10-14T08:35:10.308Z,15.20
2022-10-14T08:36:12.719Z,15.17
2022-10-14T08:37:15.616Z,15.24
2022-10-14T08:38:19.076Z,15.18
2022-10-14T08:39:21.821Z,15.34
2022-10-14T08:40:25.418Z,15.29
2022-10-14T08:41:59.917Z,15.36
2022-10-14T08:43:13.696Z,15.30
2022-10-14T08:44:33.865Z,15.27
2022-10-14T08:45:45.509Z,15.21
2022-10-14T08:47:02.154Z,15.40
2022-10-14T08:48:19.240Z,15.65
2022-10-14T08:49:52.720Z,15.65
2022-10-14T08:50:59.203Z,15.56
2022-10-14T08:52:08.729Z,15.66
2022-10-14T08:53:19.419Z,15.56
2022-10-14T08:54:30.632Z,15.66
2022-10-14T08:55:37.348Z,15.65
2022-10-14T08:56:39.778Z,15.77
2022-10-14T08:57:50.383Z,15.73
2022-10-14T08:58:55.770Z,15.70
2022-10-14T08:59:58.070Z,15.72
2022-10-14T09:01:19.733Z,15.83
2022-10-14T09:02:47.993Z,15.83
2022-10-14T09:03:57.439Z,15.87
2022-10-14T09:05:02.239Z,15.93
2022-10-14T09:06:22.366Z,15.88
2022-10-14T09:07:25.367Z,15.76
2022-10-14T09:08:38.368Z,15.49
2022-10-14T09:09:44.720Z,15.44
2022-10-14T09:10:47.204Z,15.44
2022-10-14T09:11:59.081Z,15.62
2022-10-14T09:13:16.018Z,15.68
2022-10-14T09:14:23.870Z,15.64
2022-10-14T09:15:40.790Z,15.67
2022-10-14T09:16:46.702Z,15.79
2022-10-14T09:19:15.182Z,15.92
2022-10-14T09:20:21.116Z,16.05
2022-10-14T09:21:54.525Z,16.06
2022-10-14T09:23:11.904Z,16.04
2022-10-14T09:24:29.090Z,15.79
2022-10-14T09:25:35.036Z,15.74
2022-10-14T09:26:43.960Z,15.77
2022-10-14T09:28:54.265Z,16.13
2022-10-14T09:30:01.566Z,15.87
2022-10-14T09:31:05.661Z,15.83
2022-10-14T09:32:12.976Z,15.86
2022-10-14T09:33:20.662Z,15.83
2022-10-14T09:34:31.281Z,15.76
2022-10-14T09:35:37.607Z,15.89
2022-10-14T09:36:41.045Z,15.75
2022-10-14T09:37:43.351Z,15.78
2022-10-14T09:38:53.298Z,15.89
2022-10-14T09:40:13.084Z,15.92
2022-10-14T09:41:16.827Z,16.01
2022-10-14T09:42:40.700Z,15.98
2022-10-14T09:44:18.689Z,16.02
2022-10-14T09:45:23.059Z,16.21
2022-10-14T09:46:25.296Z,16.25
2022-10-14T09:47:29.193Z,16.29
2022-10-14T09:48:39.207Z,16.40
2022-10-14T09:49:45.876Z,16.42
2022-10-14T09:50:55.598Z,16.40
2022-10-14T09:51:58.004Z,16.44
2022-10-14T09:53:10.802Z,16.35
2022-10-14T09:54:23.905Z,16.39
2022-10-14T09:55:26.168Z,16.32
2022-10-14T09:56:42.419Z,16.36
2022-10-14T09:57:44.744Z,16.33
2022-10-14T09:58:53.785Z,16.37
2022-10-14T10:00:00.631Z,16.53
2022-10-14T10:01:04.068Z,16.55
2022-10-14T10:02:21.925Z,16.61
2022-10-14T10:03:27.175Z,16.65
2022-10-14T10:04:32.073Z,16.73
2022-10-14T10:05:35.919Z,16.85
2022-10-14T10:06:53.115Z,16.80
2022-10-14T10:08:14.794Z,16.82
2022-10-14T10:09:20.575Z,16.91
2022-10-14T10:10:22.805Z,16.89
2022-10-14T10:11:39.212Z,17.00
2022-10-14T10:12:46.269Z,16.84
2022-10-14T10:13:48.644Z,16.91
2022-10-14T10:15:05.959Z,16.76
2022-10-14T10:16:19.655Z,16.91
2022-10-14T10:17:32.612Z,16.93
2022-10-14T10:18:34.848Z,16.90
2022-10-14T10:19:52.828Z,16.89
2022-10-14T10:21:07.436Z,16.67
2022-10-14T10:22:22.715Z,16.82
2022-10-14T10:23:25.480Z,16.95
2022-10-14T10:24:30.836Z,17.00
2022-10-14T10:25:33.362Z,17.09
2022-10-14T10:26:35.653Z,16.84
2022-10-14T10:27:43.123Z,16.78
2022-10-14T10:28:47.141Z,17.04
2022-10-14T10:29:49.450Z,17.06
2022-10-14T10:31:15.116Z,17.21
2022-10-14T10:32:38.816Z,17.15
2022-10-14T10:34:06.872Z,17.04
2022-10-14T10:35:22.187Z,16.79
2022-10-14T10:36:36.681Z,16.67
2022-10-14T10:38:01.705Z,16.63
2022-10-14T10:39:12.185Z,16.76
2022-10-14T10:40:30.190Z,16.52
2022-10-14T10:41:53.716Z,16.69
2022-10-14T10:43:01.894Z,16.84
2022-10-14T10:44:22.562Z,16.84
2022-10-14T10:45:40.707Z,16.59
2022-10-14T10:47:16.477Z,16.71
2022-10-14T10:48:47.431Z,16.74
2022-10-14T10:50:04.958Z,16.89
2022-10-14T10:51:14.617Z,16.82
2022-10-14T10:52:43.269Z,16.87
2022-10-14T10:53:50.820Z,16.84
2022-10-14T10:54:58.259Z,16.79
2022-10-14T10:56:38.818Z,16.69
2022-10-14T10:57:56.105Z,16.72
2022-10-14T10:59:06.548Z,16.81
2022-10-14T11:00:13.830Z,16.82
2022-10-14T11:01:41.060Z,16.72
2022-10-14T11:03:14.333Z,16.72
2022-10-14T11:04:34.113Z,16.67
2022-10-14T11:05:39.477Z,16.64
2022-10-14T11:07:27.008Z,16.62
2022-10-14T11:09:11.448Z,16.33
2022-10-14T11:10:51.173Z,16.47
2022-10-14T11:12:03.526Z,16.29
2022-10-14T11:13:10.541Z,16.24
2022-10-14T11:14:27.857Z,16.25
2022-10-14T11:15:58.328Z,16.28
2022-10-14T11:17:14.601Z,15.99
2022-10-14T11:18:26.913Z,15.97
2022-10-14T11:19:39.402Z,16.00
2022-10-14T11:21:13.840Z,16.06
2022-10-14T11:22:22.190Z,16.21
2022-10-14T11:23:48.979Z,15.95
2022-10-14T11:25:17.836Z,16.04
2022-10-14T11:26:47.628Z,16.00
2022-10-14T11:28:22.013Z,15.93
2022-10-14T11:29:45.988Z,15.97
2022-10-14T11:31:06.964Z,16.02
2022-10-14T11:32:24.263Z,15.98
2022-10-14T11:34:05.133Z,15.90
2022-10-14T11:35:19.122Z,15.97
2022-10-14T11:36:37.603Z,15.97
2022-10-14T11:37:39.764Z,15.75
2022-10-14T11:38:48.266Z,15.73
2022-10-14T11:39:57.616Z,15.65
2022-10-14T11:41:28.698Z,15.55
2022-10-14T11:42:44.536Z,15.43
2022-10-14T11:44:32.842Z,15.52
2022-10-14T11:45:52.246Z,15.39
2022-10-14T11:46:59.518Z,15.41
2022-10-14T11:48:10.825Z,15.61
2022-10-14T11:49:20.765Z,15.69
2022-10-14T11:50:39.351Z,15.59
2022-10-14T11:51:51.369Z,15.55
2022-10-14T11:53:04.251Z,15.46
2022-10-14T11:54:28.477Z,15.60
2022-10-14T11:55:40.230Z,15.83
2022-10-14T11:57:13.232Z,15.77
2022-10-14T11:58:25.833Z,15.75
2022-10-14T11:59:28.259Z,15.74
2022-10-14T12:01:09.420Z,15.90
2022-10-14T12:02:27.395Z,16.10
2022-10-14T12:03:59.799Z,16.08
2022-10-14T12:05:09.056Z,15.89
2022-10-14T12:06:48.766Z,15.80
2022-10-14T12:08:04.484Z,15.81
2022-10-14T12:09:44.369Z,15.73
2022-10-14T12:11:02.544Z,15.84
2022-10-14T12:12:11.725Z,16.05
2022-10-14T12:13:16.707Z,16.37
2022-10-14T12:14:30.025Z,16.12
2022-10-14T12:15:32.294Z,16.48
2022-10-14T12:16:34.639Z,16.44
2022-10-14T12:17:48.945Z,16.56
2022-10-14T12:18:55.714Z,16.84
2022-10-14T12:20:16.075Z,16.72
2022-10-14T12:21:27.956Z,16.94
2022-10-14T12:22:32.867Z,17.13
2022-10-14T12:23:42.279Z,17.02
2022-10-14T12:24:53.529Z,17.36
2022-10-14T12:26:04.346Z,17.55
2022-10-14T12:27:14.791Z,17.08
2022-10-14T12:28:20.854Z,16.78
2022-10-14T12:29:33.631Z,16.57
2022-10-14T12:30:41.454Z,16.63
2022-10-14T12:31:50.441Z,16.63
2022-10-14T12:33:02.551Z,16.45
2022-10-14T12:34:10.840Z,16.43
2022-10-14T12:35:50.824Z,16.56
2022-10-14T12:36:54.436Z,16.60
2022-10-14T12:38:03.825Z,16.54
2022-10-14T12:39:17.838Z,16.69
2022-10-14T12:40:28.506Z,16.90
2022-10-14T12:41:40.070Z,16.78
2022-10-14T12:42:42.136Z,16.82
2022-10-14T12:44:02.409Z,16.89
2022-10-14T12:45:16.578Z,16.77
2022-10-14T12:46:18.861Z,16.92
2022-10-14T12:47:31.959Z,17.09
2022-10-14T12:48:35.725Z,17.00
2022-10-14T12:49:37.882Z,17.12
2022-10-14T12:50:42.626Z,17.37
2022-10-14T12:52:06.603Z,17.62
2022-10-14T12:53:21.434Z,17.65
2022-10-14T12:54:25.243Z,17.82
2022-10-14T12:55:30.167Z,17.47
2022-10-14T12:56:40.245Z,17.14
2022-10-14T12:57:43.985Z,17.03
2022-10-14T12:59:07.948Z,17.05
2022-10-14T13:00:30.607Z,17.24
2022-10-14T13:01:36.387Z,17.34
2022-10-14T13:02:45.590Z,17.26
2022-10-14T13:05:08.673Z,17.23
2022-10-14T13:06:41.029Z,17.54
2022-10-14T13:07:48.741Z,17.47
2022-10-14T13:09:18.350Z,17.44
2022-10-14T13:10:26.605Z,17.54
2022-10-14T13:11:28.831Z,17.54
2022-10-14T13:12:31.735Z,17.71
2022-10-14T13:13:47.663Z,17.89
2022-10-14T13:15:19.527Z,17.94
2022-10-14T13:16:21.611Z,18.10
2022-10-14T13:17:44.666Z,17.64
2022-10-14T13:18:46.774Z,17.37
2022-10-14T13:19:49.043Z,17.35
2022-10-14T13:20:52.450Z,17.37
2022-10-14T13:21:54.810Z,17.40
2022-10-14T13:23:21.413Z,17.85
2022-10-14T13:24:39.194Z,18.14
2022-10-14T13:25:43.424Z,18.23
2022-10-14T13:26:54.435Z,18.30
2022-10-14T13:28:02.386Z,18.42
2022-10-14T13:29:15.134Z,18.47
2022-10-14T13:30:23.516Z,18.53
2022-10-14T13:31:50.601Z,18.54
2022-10-14T13:33:07.640Z,18.42
2022-10-14T13:34:31.438Z,18.56
2022-10-14T13:35:46.627Z,18.45
2022-10-14T13:37:06.004Z,18.39
2022-10-14T13:38:15.093Z,18.42
2022-10-14T13:39:18.393Z,18.43
2022-10-14T13:40:29.031Z,18.19
2022-10-14T13:41:34.501Z,17.94
2022-10-14T13:42:39.699Z,17.70
2022-10-14T13:43:43.611Z,17.49
2022-10-14T13:45:52.438Z,17.40
2022-10-14T13:46:54.978Z,17.49
2022-10-14T13:47:57.207Z,17.49
2022-10-14T13:49:02.288Z,17.48
2022-10-14T13:50:06.083Z,17.37
2022-10-14T13:51:24.396Z,17.53
2022-10-14T13:52:34.822Z,17.55
2022-10-14T13:53:37.033Z,17.47
2022-10-14T13:54:39.574Z,17.47
2022-10-14T13:55:49.139Z,17.40
2022-10-14T13:57:13.784Z,17.59
2022-10-14T13:58:22.736Z,17.49
2022-10-14T13:59:44.235Z,17.51
2022-10-14T14:00:57.911Z,17.37
2022-10-14T14:02:03.599Z,17.20
2022-10-14T14:03:25.273Z,17.35
2022-10-14T14:04:31.550Z,17.31
2022-10-14T14:05:36.344Z,17.31
2022-10-14T14:07:03.148Z,17.09
2022-10-14T14:08:37.223Z,17.21
2022-10-14T14:09:41.361Z,17.03
2022-10-14T14:11:17.829Z,17.08
2022-10-14T14:12:21.810Z,17.15
2022-10-14T14:13:26.255Z,17.11
2022-10-14T14:14:47.752Z,16.98
2022-10-14T14:15:51.970Z,17.03
2022-10-14T14:16:56.462Z,16.89
2022-10-14T14:17:58.683Z,16.95
2022-10-14T14:19:10.191Z,16.89
2022-10-14T14:20:12.826Z,16.71
2022-10-14T14:21:16.226Z,16.65
2022-10-14T14:22:28.509Z,16.48
2022-10-14T14:23:30.840Z,16.51
2022-10-14T14:24:34.193Z,16.50
2022-10-14T14:25:43.254Z,16.46
2022-10-14T14:26:55.112Z,16.29
2022-10-14T14:28:01.841Z,16.16
2022-10-14T14:29:07.004Z,16.23
2022-10-14T14:30:27.753Z,16.25
2022-10-14T14:31:47.889Z,16.33
2022-10-14T14:32:54.157Z,16.44
2022-10-14T14:33:59.041Z,16.41
2022-10-14T14:35:04.630Z,16.15
2022-10-14T14:36:18.127Z,16.07
2022-10-14T14:37:55.724Z,16.29
2022-10-14T14:38:58.829Z,16.33
2022-10-14T14:40:04.615Z,16.37
2022-10-14T14:41:18.403Z,16.40
2022-10-14T14:42:21.030Z,16.47
2022-10-14T14:43:24.162Z,16.47
2022-10-14T14:44:29.946Z,16.57
2022-10-14T14:45:37.461Z,16.56
2022-10-14T14:46:42.086Z,16.56
2022-10-14T14:47:44.904Z,16.71
2022-10-14T14:48:54.515Z,16.70
2022-10-14T14:50:18.340Z,16.69
2022-10-14T14:51:22.201Z,16.69
2022-10-14T14:52:25.110Z,16.54
2022-10-14T14:53:29.902Z,16.39
2022-10-14T14:54:32.073Z,16.49
2022-10-14T14:55:55.939Z,16.49